Time;durP1;ratioP1;P1;durP2;ratioP2;P2;SDS_P1;SDS_P2;PMS_P1;PMS_P2;Temp;Humidity;BMP_temperature;BMP_pressure;BME280_temperature;BME280_humidity;BME280_pressure;Samples;Min_cycle;Max_cycle;Signal;HPM_P1;HPM_P2
2023/08/28 00:03:48;;;;;;;9.60;9.30;;;15.80;99.90;;;;;;5145990;27;20232;-84
2023/08/28 00:09:13;;;;;;;9.70;9.40;;;15.70;99.90;;;;;;5145024;27;20232;-84
2023/08/28 00:11:52;;;;;;;9.80;9.50;;;15.70;99.90;;;;;;5145281;27;20238;-85
2023/08/28 00:14:21;;;;;;;9.80;9.50;;;15.70;99.90;;;;;;5144057;27;20235;-84
2023/08/28 00:17:00;;;;;;;9.90;9.60;;;15.70;99.90;;;;;;5157263;27;20226;-84
2023/08/28 00:19:29;;;;;;;9.80;9.50;;;15.80;99.90;;;;;;5147760;27;20239;-83
2023/08/28 00:24:53;;;;;;;9.65;9.35;;;15.80;99.90;;;;;;5147543;27;20231;-84
2023/08/28 00:27:33;;;;;;;9.70;9.40;;;15.80;99.90;;;;;;5145387;27;20220;-84
2023/08/28 00:30:01;;;;;;;9.73;9.43;;;15.90;99.90;;;;;;5145766;27;20234;-83
2023/08/28 00:32:40;;;;;;;9.70;9.40;;;15.80;99.90;;;;;;5149112;27;20219;-83
2023/08/28 00:35:09;;;;;;;9.80;9.50;;;15.80;99.90;;;;;;5129239;27;20293;-84
2023/08/28 00:43:04;;;;;;;9.90;9.60;;;15.80;99.90;;;;;;5121181;28;20235;-85
2023/08/28 00:45:33;;;;;;;9.70;9.40;;;15.80;99.90;;;;;;5130686;27;20232;-83
2023/08/28 00:48:12;;;;;;;9.70;9.40;;;15.70;99.90;;;;;;5138641;27;20233;-84
2023/08/28 00:50:43;;;;;;;9.95;9.65;;;15.80;99.90;;;;;;5122612;27;20251;-84
2023/08/28 00:53:13;;;;;;;9.85;9.55;;;15.70;99.90;;;;;;5134346;27;20232;-84
2023/08/28 00:55:41;;;;;;;9.90;9.60;;;15.70;99.90;;;;;;5134419;27;20314;-84
2023/08/28 00:58:11;;;;;;;9.90;9.60;;;15.70;99.90;;;;;;5134864;27;20235;-84
2023/08/28 01:00:39;;;;;;;9.65;9.35;;;15.70;99.90;;;;;;5125500;27;20815;-83
2023/08/28 01:03:09;;;;;;;9.90;9.60;;;15.70;99.90;;;;;;5130701;27;20224;-83
2023/08/28 01:05:47;;;;;;;10.13;9.82;;;15.60;99.90;;;;;;5141276;27;20228;-82
2023/08/28 01:16:47;;;;;;;10.00;9.70;;;15.60;99.90;;;;;;5130797;27;20232;-83
2023/08/28 01:19:32;;;;;;;9.98;9.68;;;15.50;99.90;;;;;;5130534;27;20251;-83
2023/08/28 01:22:11;;;;;;;9.77;9.48;;;15.50;99.90;;;;;;5122163;28;20225;-83
2023/08/28 01:24:50;;;;;;;9.90;9.60;;;15.50;99.90;;;;;;5122484;27;20267;-83
2023/08/28 01:30:14;;;;;;;9.82;9.52;;;15.40;99.90;;;;;;5134461;27;20235;-83
2023/08/28 01:32:44;;;;;;;10.02;9.73;;;15.40;99.90;;;;;;5124230;27;20225;-83
2023/08/28 01:35:14;;;;;;;9.93;9.63;;;15.40;99.90;;;;;;5122332;27;20415;-84
2023/08/28 01:37:56;;;;;;;9.98;9.68;;;15.40;99.90;;;;;;5130975;27;20228;-83
2023/08/28 01:40:33;;;;;;;10.10;9.80;;;15.40;99.90;;;;;;5128679;27;20332;-83
2023/08/28 01:45:56;;;;;;;9.90;9.60;;;15.50;99.90;;;;;;5143186;27;20262;-82
2023/08/28 01:48:26;;;;;;;9.93;9.63;;;15.50;99.90;;;;;;5147598;27;20288;-81
2023/08/28 01:50:54;;;;;;;9.73;9.43;;;15.50;99.90;;;;;;5141584;27;20309;-83
2023/08/28 01:53:23;;;;;;;9.85;9.55;;;15.50;99.90;;;;;;5138629;27;20208;-82
2023/08/28 01:59:08;;;;;;;9.85;9.55;;;15.50;99.90;;;;;;5125834;27;20293;-84
2023/08/28 02:01:47;;;;;;;9.75;9.45;;;15.40;99.90;;;;;;5127257;27;20237;-84
2023/08/28 02:04:15;;;;;;;9.75;9.45;;;15.40;99.90;;;;;;5135106;27;20235;-84
2023/08/28 02:06:54;;;;;;;9.85;9.55;;;15.40;99.90;;;;;;5139081;27;20231;-83
2023/08/28 02:09:23;;;;;;;10.07;9.77;;;15.40;99.90;;;;;;5126489;27;20232;-85
2023/08/28 02:12:02;;;;;;;9.80;9.50;;;15.40;99.90;;;;;;5122191;27;20229;-84
2023/08/28 02:14:40;;;;;;;9.80;9.50;;;15.40;99.90;;;;;;5132953;27;20262;-82
2023/08/28 02:17:09;;;;;;;9.73;9.43;;;15.40;99.90;;;;;;5134162;27;20258;-83
2023/08/28 02:19:47;;;;;;;9.68;9.38;;;15.30;99.90;;;;;;5139039;27;20236;-83
2023/08/28 02:24:55;;;;;;;9.70;9.40;;;15.30;99.90;;;;;;5122570;27;20485;-83
2023/08/28 02:27:24;;;;;;;9.90;9.60;;;15.30;99.90;;;;;;5132845;27;20232;-83
2023/08/28 02:29:56;;;;;;;9.75;9.45;;;15.30;99.90;;;;;;5132788;27;20315;-83
2023/08/28 02:32:25;;;;;;;9.60;9.30;;;15.30;99.90;;;;;;5125299;27;20232;-83
2023/08/28 02:34:54;;;;;;;9.68;9.38;;;15.30;99.90;;;;;;5128829;27;20302;-84
2023/08/28 02:37:22;;;;;;;9.57;9.27;;;15.30;99.90;;;;;;5120872;28;20225;-84
2023/08/28 02:40:01;;;;;;;9.60;9.30;;;15.20;99.90;;;;;;5137531;27;20869;-84
2023/08/28 02:42:29;;;;;;;9.60;9.30;;;15.20;99.90;;;;;;5136309;27;20288;-84
2023/08/28 02:45:02;;;;;;;9.80;9.50;;;15.20;99.90;;;;;;5141467;27;20220;-84
2023/08/28 02:47:29;;;;;;;9.70;9.40;;;15.20;99.90;;;;;;5140956;27;20251;-84
2023/08/28 02:50:08;;;;;;;9.57;9.27;;;15.20;99.90;;;;;;5146600;27;20234;-83
2023/08/28 02:52:37;;;;;;;9.43;9.13;;;15.20;99.90;;;;;;5142549;27;20224;-84
2023/08/28 02:55:06;;;;;;;9.68;9.38;;;15.20;99.90;;;;;;5142039;27;20232;-84
2023/08/28 02:57:45;;;;;;;9.60;9.30;;;15.20;99.90;;;;;;5140825;27;20281;-83
2023/08/28 03:00:18;;;;;;;10.02;9.73;;;15.20;99.90;;;;;;5141357;27;20227;-84
2023/08/28 03:02:46;;;;;;;9.68;9.38;;;15.20;99.90;;;;;;5141723;27;20242;-84
2023/08/28 03:05:14;;;;;;;9.80;9.50;;;15.00;99.90;;;;;;5141622;27;20212;-84
2023/08/28 03:07:42;;;;;;;9.73;9.43;;;15.00;99.90;;;;;;5142237;27;20231;-83
2023/08/28 03:10:12;;;;;;;9.70;9.40;;;14.90;99.90;;;;;;5142070;27;20224;-84
2023/08/28 03:12:41;;;;;;;9.60;9.30;;;14.80;99.90;;;;;;5141832;27;20220;-84
2023/08/28 03:15:11;;;;;;;9.70;9.40;;;14.80;99.90;;;;;;5141606;27;20217;-83
2023/08/28 03:20:28;;;;;;;9.88;9.57;;;14.80;99.90;;;;;;5139610;27;20227;-83
2023/08/28 03:22:57;;;;;;;9.90;9.60;;;14.90;99.90;;;;;;5141485;27;20280;-84
2023/08/28 03:25:25;;;;;;;9.75;9.45;;;14.90;99.90;;;;;;5141489;27;20287;-84
2023/08/28 03:28:07;;;;;;;9.77;9.48;;;14.90;99.90;;;;;;5141506;27;20232;-83
2023/08/28 03:30:34;;;;;;;9.50;9.20;;;15.00;99.90;;;;;;5141569;27;20228;-83
2023/08/28 03:33:07;;;;;;;9.63;9.32;;;15.00;99.90;;;;;;5140975;27;20235;-83
2023/08/28 03:35:35;;;;;;;9.80;9.50;;;15.00;99.90;;;;;;5141058;27;20224;-84
2023/08/28 03:38:02;;;;;;;9.90;9.60;;;15.00;99.90;;;;;;5141522;27;20361;-83
2023/08/28 03:40:31;;;;;;;9.70;9.40;;;14.90;99.90;;;;;;5141236;27;20267;-83
2023/08/28 03:43:01;;;;;;;9.57;9.27;;;14.90;99.90;;;;;;5157461;27;20216;-83
2023/08/28 03:45:30;;;;;;;9.80;9.50;;;14.90;99.90;;;;;;5160867;27;20343;-83
2023/08/28 03:48:08;;;;;;;9.75;9.45;;;14.80;99.90;;;;;;5156628;27;20232;-83
2023/08/28 03:50:40;;;;;;;9.80;9.50;;;14.80;99.90;;;;;;5160742;27;20261;-82
2023/08/28 03:53:07;;;;;;;9.55;9.25;;;14.80;99.90;;;;;;5159282;27;20216;-84
2023/08/28 03:55:40;;;;;;;9.60;9.30;;;14.80;99.90;;;;;;5143191;27;20228;-83
2023/08/28 03:58:08;;;;;;;9.68;9.38;;;14.80;99.90;;;;;;5140660;27;20236;-84
2023/08/28 04:00:35;;;;;;;9.70;9.40;;;14.80;99.90;;;;;;5135989;22;20257;-79
2023/08/28 04:03:03;;;;;;;9.50;9.20;;;14.80;99.90;;;;;;5082598;28;20617;-79
2023/08/28 04:05:32;;;;;;;9.70;9.40;;;14.80;99.90;;;;;;5099970;28;20221;-79
2023/08/28 04:08:01;;;;;;;9.45;9.15;;;14.80;99.90;;;;;;5103063;28;20252;-80
2023/08/28 04:10:28;;;;;;;9.40;9.10;;;14.90;99.90;;;;;;5095262;28;20240;-79
2023/08/28 04:12:55;;;;;;;9.48;9.18;;;15.00;99.90;;;;;;5102009;28;20228;-79
2023/08/28 04:15:23;;;;;;;9.25;8.95;;;15.00;99.90;;;;;;5100678;28;20291;-77
2023/08/28 04:17:49;;;;;;;9.55;9.25;;;15.00;99.90;;;;;;5100844;28;20233;-78
2023/08/28 04:20:17;;;;;;;9.57;9.27;;;15.00;99.90;;;;;;5100347;28;20272;-77
2023/08/28 04:22:45;;;;;;;9.48;9.18;;;15.10;99.90;;;;;;5100576;28;20222;-77
2023/08/28 04:25:15;;;;;;;9.70;9.40;;;15.10;99.90;;;;;;5101173;28;20264;-78
2023/08/28 04:27:42;;;;;;;9.70;9.40;;;15.00;99.90;;;;;;5101236;28;20228;-78
2023/08/28 04:30:11;;;;;;;9.63;9.32;;;15.00;99.90;;;;;;5100008;28;20272;-78
2023/08/28 04:32:39;;;;;;;9.48;9.18;;;15.00;99.90;;;;;;5100127;28;20277;-78
2023/08/28 04:35:07;;;;;;;9.48;9.18;;;15.00;99.90;;;;;;5100380;28;20285;-77
2023/08/28 04:37:35;;;;;;;9.23;8.93;;;15.10;99.90;;;;;;5100511;28;20247;-78
2023/08/28 04:40:02;;;;;;;9.45;9.15;;;15.10;99.90;;;;;;5100346;28;20237;-77
2023/08/28 04:42:31;;;;;;;9.70;9.40;;;15.10;99.90;;;;;;5100488;28;20225;-78
2023/08/28 04:44:58;;;;;;;9.55;9.25;;;15.10;99.90;;;;;;5101086;28;20229;-79
2023/08/28 04:47:25;;;;;;;9.10;8.80;;;15.10;99.90;;;;;;5107945;28;20229;-77
2023/08/28 04:49:52;;;;;;;9.30;9.00;;;15.10;99.90;;;;;;5102268;28;20225;-78
2023/08/28 04:52:20;;;;;;;9.50;9.20;;;15.10;99.90;;;;;;5100627;28;20228;-77
2023/08/28 04:54:47;;;;;;;9.30;9.00;;;15.10;99.90;;;;;;5100430;28;20309;-78
2023/08/28 04:57:14;;;;;;;9.25;8.95;;;15.20;99.90;;;;;;5100162;28;20233;-78
2023/08/28 04:59:43;;;;;;;9.45;9.15;;;15.20;99.90;;;;;;5100442;28;20252;-78
2023/08/28 05:02:10;;;;;;;9.20;8.90;;;15.00;99.90;;;;;;5100478;28;20234;-78
2023/08/28 05:04:37;;;;;;;9.48;9.18;;;15.00;99.90;;;;;;5101738;28;20229;-79
2023/08/28 05:07:07;;;;;;;9.27;8.98;;;14.90;99.90;;;;;;5102316;28;20229;-80
2023/08/28 05:09:36;;;;;;;9.30;9.00;;;14.90;99.90;;;;;;5100656;28;20237;-77
2023/08/28 05:12:04;;;;;;;9.40;9.10;;;14.80;99.90;;;;;;5099615;28;20240;-77
2023/08/28 05:14:31;;;;;;;9.43;9.13;;;14.90;99.90;;;;;;5099863;28;20232;-77
2023/08/28 05:16:59;;;;;;;9.60;9.30;;;14.90;99.90;;;;;;5100462;28;20245;-78
2023/08/28 05:19:26;;;;;;;9.43;9.13;;;14.90;99.90;;;;;;5099436;28;20237;-77
2023/08/28 05:21:53;;;;;;;9.35;9.05;;;14.90;99.90;;;;;;5100194;28;20234;-77
2023/08/28 05:24:20;;;;;;;9.48;9.18;;;15.00;99.90;;;;;;5100265;28;20234;-77
2023/08/28 05:26:47;;;;;;;9.20;8.90;;;14.90;99.90;;;;;;5101308;28;20235;-79
2023/08/28 05:29:14;;;;;;;9.38;9.07;;;14.80;99.90;;;;;;5101902;28;20357;-79
2023/08/28 05:31:41;;;;;;;9.30;9.00;;;14.80;99.90;;;;;;5101846;28;20232;-79
2023/08/28 05:34:10;;;;;;;9.15;8.85;;;14.80;99.90;;;;;;5101591;28;20224;-79
2023/08/28 05:36:37;;;;;;;9.38;9.07;;;14.90;99.90;;;;;;5104148;28;20232;-79
2023/08/28 05:39:04;;;;;;;9.10;8.80;;;14.90;99.90;;;;;;5115540;27;20218;-79
2023/08/28 05:41:34;;;;;;;9.10;8.80;;;14.90;99.90;;;;;;5121395;27;20233;-78
2023/08/28 05:44:01;;;;;;;9.00;8.70;;;14.90;99.90;;;;;;5116918;27;20239;-79
2023/08/28 05:46:28;;;;;;;9.05;8.75;;;14.90;99.90;;;;;;5101344;28;20230;-77
2023/08/28 05:48:58;;;;;;;8.95;8.65;;;14.90;99.90;;;;;;5100438;28;20280;-77
2023/08/28 05:51:26;;;;;;;9.05;8.75;;;15.00;99.90;;;;;;5100866;28;20233;-79
2023/08/28 05:53:53;;;;;;;9.10;8.80;;;15.00;99.90;;;;;;5101013;28;20320;-80
2023/08/28 05:56:21;;;;;;;9.20;8.90;;;15.10;99.90;;;;;;5101235;28;20225;-79
2023/08/28 05:58:48;;;;;;;9.20;8.90;;;15.10;99.90;;;;;;5101137;28;20257;-80
2023/08/28 06:01:15;;;;;;;9.07;8.77;;;15.10;99.90;;;;;;5101015;28;20229;-79
2023/08/28 06:03:44;;;;;;;8.80;8.50;;;15.20;99.90;;;;;;5122625;28;20229;-80
2023/08/28 06:06:12;;;;;;;9.00;8.70;;;15.20;99.90;;;;;;5122072;28;20233;-80
2023/08/28 06:08:40;;;;;;;8.98;8.68;;;15.20;99.90;;;;;;5121840;28;20232;-80
2023/08/28 06:11:08;;;;;;;8.60;8.40;;;15.20;99.90;;;;;;5122784;28;20240;-80
2023/08/28 06:13:38;;;;;;;9.23;8.93;;;15.20;99.90;;;;;;5120485;28;20402;-80
2023/08/28 06:16:05;;;;;;;9.38;9.07;;;15.30;99.90;;;;;;5120898;28;20310;-81
2023/08/28 06:18:32;;;;;;;9.20;8.90;;;15.40;99.90;;;;;;5121624;28;20240;-80
2023/08/28 06:21:03;;;;;;;9.30;9.00;;;15.30;99.90;;;;;;5121620;28;20316;-80
2023/08/28 06:23:30;;;;;;;8.70;8.50;;;15.30;99.90;;;;;;5120428;28;20224;-80
2023/08/28 06:25:59;;;;;;;9.10;8.80;;;15.30;99.90;;;;;;5115944;28;20234;-80
2023/08/28 06:28:26;;;;;;;8.95;8.65;;;15.30;99.90;;;;;;5099237;28;20263;-79
2023/08/28 06:30:53;;;;;;;9.20;8.90;;;15.30;99.90;;;;;;5109748;27;20332;-80
2023/08/28 06:33:20;;;;;;;8.65;8.45;;;15.30;99.90;;;;;;5103403;28;20736;-80
2023/08/28 06:35:47;;;;;;;9.20;8.90;;;15.40;99.90;;;;;;5102360;28;20225;-80
2023/08/28 06:38:14;;;;;;;8.80;8.55;;;15.40;99.90;;;;;;5100595;28;20328;-80
2023/08/28 06:40:42;;;;;;;8.70;8.50;;;15.40;99.90;;;;;;5099260;28;20277;-79
2023/08/28 06:43:10;;;;;;;8.98;8.68;;;15.50;99.90;;;;;;5099539;28;20225;-80
2023/08/28 06:45:37;;;;;;;9.23;8.93;;;15.60;99.90;;;;;;5099990;28;20289;-79
2023/08/28 06:48:07;;;;;;;9.10;8.80;;;15.60;99.90;;;;;;5092141;28;20283;-80
2023/08/28 06:50:34;;;;;;;9.20;8.90;;;15.70;99.90;;;;;;5101565;28;20230;-80
2023/08/28 06:53:02;;;;;;;8.85;8.57;;;15.70;99.90;;;;;;5101582;28;20205;-80
2023/08/28 06:55:29;;;;;;;8.57;8.38;;;15.70;99.90;;;;;;5110593;28;20233;-80
2023/08/28 06:57:56;;;;;;;8.68;8.48;;;15.80;99.90;;;;;;5099206;28;20284;-80
2023/08/28 07:00:25;;;;;;;8.60;8.40;;;15.80;99.90;;;;;;5099080;28;20284;-81
2023/08/28 07:02:52;;;;;;;8.77;8.57;;;15.90;99.90;;;;;;5109809;27;20225;-78
2023/08/28 07:05:19;;;;;;;9.18;8.88;;;15.80;99.90;;;;;;5099692;28;20241;-78
2023/08/28 07:07:46;;;;;;;9.30;9.00;;;15.80;99.90;;;;;;5101718;28;20233;-78
2023/08/28 07:10:13;;;;;;;9.40;9.10;;;15.80;99.90;;;;;;5105211;28;20280;-78
2023/08/28 07:12:40;;;;;;;8.90;8.70;;;15.70;99.90;;;;;;5099000;28;20232;-78
2023/08/28 07:15:58;;;;;;;8.48;8.27;;;15.80;99.90;;;;;;5100393;28;20226;-78
2023/08/28 07:18:27;;;;;;;8.70;8.50;;;15.80;99.90;;;;;;5099557;28;20289;-78
2023/08/28 07:20:54;;;;;;;9.00;8.70;;;15.80;99.90;;;;;;5106465;28;20233;-78
2023/08/28 07:23:22;;;;;;;8.70;8.50;;;15.80;99.90;;;;;;5098391;28;20221;-78
2023/08/28 07:25:50;;;;;;;8.95;8.70;;;15.90;99.90;;;;;;5099205;28;20229;-78
2023/08/28 07:28:17;;;;;;;8.93;8.65;;;15.90;99.90;;;;;;5100155;28;20229;-79
2023/08/28 07:30:46;;;;;;;8.82;8.60;;;15.80;99.90;;;;;;5098960;28;20788;-79
2023/08/28 07:33:13;;;;;;;8.95;8.68;;;15.70;99.90;;;;;;5099275;28;20280;-79
2023/08/28 07:35:46;;;;;;;8.80;8.60;;;15.70;99.90;;;;;;5099774;28;20283;-79
2023/08/28 07:38:15;;;;;;;9.02;8.73;;;15.60;99.90;;;;;;5099808;28;20237;-79
2023/08/28 07:40:42;;;;;;;8.90;8.70;;;15.70;99.90;;;;;;5099760;28;20267;-78
2023/08/28 07:43:09;;;;;;;8.82;8.63;;;15.80;99.90;;;;;;5101594;28;20292;-77
2023/08/28 07:45:36;;;;;;;8.82;8.63;;;15.80;99.90;;;;;;5102177;28;20239;-78
2023/08/28 07:48:04;;;;;;;8.45;8.25;;;15.90;99.90;;;;;;5102083;28;20233;-79
2023/08/28 07:50:31;;;;;;;8.70;8.50;;;15.80;99.90;;;;;;5101101;28;20241;-78
2023/08/28 07:53:00;;;;;;;8.70;8.50;;;15.80;99.90;;;;;;5101137;28;20321;-79
2023/08/28 07:55:27;;;;;;;8.40;8.20;;;15.80;99.90;;;;;;5101700;28;20318;-79
2023/08/28 07:57:55;;;;;;;8.43;8.23;;;15.80;99.90;;;;;;5102337;28;20805;-79
2023/08/28 08:00:22;;;;;;;8.57;8.38;;;15.90;99.90;;;;;;5101758;28;20294;-78
2023/08/28 08:02:51;;;;;;;8.60;8.40;;;15.80;99.90;;;;;;5100372;28;20718;-79
2023/08/28 08:05:23;;;;;;;8.52;8.32;;;15.80;99.90;;;;;;5081629;28;20695;-78
2023/08/28 08:07:50;;;;;;;8.90;8.70;;;15.80;99.90;;;;;;5082128;28;20229;-78
2023/08/28 08:10:19;;;;;;;8.73;8.52;;;15.80;99.90;;;;;;5089115;28;20214;-78
2023/08/28 08:12:46;;;;;;;8.60;8.40;;;15.90;99.90;;;;;;5081769;28;20246;-79
2023/08/28 08:15:13;;;;;;;8.77;8.57;;;15.80;99.90;;;;;;5081475;28;20229;-79
2023/08/28 08:17:40;;;;;;;9.02;8.80;;;15.80;99.90;;;;;;5083776;28;20252;-80
2023/08/28 08:20:11;;;;;;;8.75;8.55;;;15.70;99.90;;;;;;5088414;28;20261;-79
2023/08/28 08:22:38;;;;;;;8.93;8.70;;;15.80;99.90;;;;;;5105094;28;20225;-79
2023/08/28 08:25:09;;;;;;;8.75;8.55;;;15.90;99.90;;;;;;5125960;28;20251;-80
2023/08/28 08:27:39;;;;;;;8.80;8.60;;;15.90;99.90;;;;;;5126627;28;20258;-80
2023/08/28 08:30:13;;;;;;;8.80;8.60;;;16.00;99.90;;;;;;5126315;28;20241;-81
2023/08/28 08:32:40;;;;;;;8.75;8.55;;;16.00;99.90;;;;;;5130258;28;20209;-80
2023/08/28 08:35:09;;;;;;;8.45;8.25;;;16.00;99.90;;;;;;5127040;28;20252;-80
2023/08/28 08:37:36;;;;;;;8.50;8.30;;;16.00;99.90;;;;;;5126095;28;20225;-79
2023/08/28 08:40:14;;;;;;;8.60;8.40;;;16.00;99.90;;;;;;5124791;28;20220;-79
2023/08/28 08:42:43;;;;;;;8.32;8.13;;;16.00;99.90;;;;;;5123903;28;20220;-80
2023/08/28 08:45:11;;;;;;;8.60;8.40;;;16.00;99.90;;;;;;5123843;28;20228;-79
2023/08/28 08:47:47;;;;;;;9.10;8.80;;;15.90;99.90;;;;;;5124140;28;20240;-78
2023/08/28 08:50:19;;;;;;;8.80;8.60;;;15.80;99.90;;;;;;5124520;28;20235;-79
2023/08/28 08:52:51;;;;;;;8.70;8.50;;;15.80;99.90;;;;;;5124063;27;20227;-79
2023/08/28 08:55:26;;;;;;;9.27;8.98;;;15.70;99.90;;;;;;5124752;28;20966;-79
2023/08/28 08:57:59;;;;;;;9.00;8.70;;;15.70;99.90;;;;;;5125207;28;20318;-79
2023/08/28 09:00:27;;;;;;;8.60;8.40;;;15.70;99.90;;;;;;5123078;28;20239;-80
2023/08/28 09:02:55;;;;;;;8.98;8.68;;;15.80;99.90;;;;;;5133019;27;20217;-80
2023/08/28 09:05:22;;;;;;;8.73;8.52;;;15.80;99.90;;;;;;5131231;28;20264;-81
2023/08/28 09:07:51;;;;;;;8.90;8.60;;;15.90;99.90;;;;;;5133828;28;20236;-80
2023/08/28 09:10:19;;;;;;;8.55;8.35;;;15.90;99.90;;;;;;5133439;28;20235;-80
2023/08/28 09:12:47;;;;;;;8.43;8.23;;;16.00;99.90;;;;;;5130410;28;20240;-80
2023/08/28 09:15:16;;;;;;;8.20;8.00;;;16.00;99.90;;;;;;5125944;28;20232;-80
2023/08/28 09:17:44;;;;;;;8.20;8.00;;;16.00;99.90;;;;;;5109706;28;20241;-80
2023/08/28 09:20:16;;;;;;;8.27;8.07;;;16.10;99.90;;;;;;5104758;28;20234;-79
2023/08/28 09:22:48;;;;;;;8.40;8.20;;;16.20;99.90;;;;;;5102994;28;20218;-79
2023/08/28 09:25:17;;;;;;;8.20;8.00;;;16.20;99.90;;;;;;5103759;28;20229;-80
2023/08/28 09:27:45;;;;;;;8.40;8.20;;;16.20;99.90;;;;;;5106353;28;20233;-80
2023/08/28 09:30:30;;;;;;;8.60;8.40;;;16.20;99.90;;;;;;5104262;28;20331;-80
2023/08/28 09:33:00;;;;;;;8.43;8.23;;;16.20;99.90;;;;;;5104435;28;20236;-80
2023/08/28 09:35:28;;;;;;;8.32;8.13;;;16.20;99.90;;;;;;5107274;28;20332;-80
2023/08/28 09:38:02;;;;;;;8.85;8.57;;;16.20;99.90;;;;;;5105929;28;20301;-79
2023/08/28 09:40:32;;;;;;;8.43;8.23;;;16.30;99.90;;;;;;5104808;28;20294;-80
2023/08/28 09:42:59;;;;;;;8.65;8.45;;;16.30;99.90;;;;;;5104894;28;20238;-80
2023/08/28 09:45:33;;;;;;;8.48;8.27;;;16.30;99.90;;;;;;5105030;28;20252;-80
2023/08/28 09:48:03;;;;;;;8.70;8.50;;;16.30;99.90;;;;;;5104507;28;20225;-82
2023/08/28 09:50:32;;;;;;;9.02;8.73;;;16.30;99.90;;;;;;5103528;28;20327;-80
2023/08/28 09:53:07;;;;;;;8.70;8.50;;;16.30;99.90;;;;;;5102536;28;20264;-81
2023/08/28 09:55:39;;;;;;;8.75;8.55;;;16.30;99.90;;;;;;5104249;28;20227;-81
2023/08/28 09:58:10;;;;;;;8.90;8.60;;;16.40;99.90;;;;;;5101027;28;20375;-80
2023/08/28 10:00:41;;;;;;;8.65;8.45;;;16.40;99.90;;;;;;5122801;22;20240;-84
2023/08/28 10:03:10;;;;;;;8.95;8.68;;;16.40;99.90;;;;;;5091365;28;20232;-85
2023/08/28 10:05:40;;;;;;;9.10;8.80;;;16.30;99.90;;;;;;5101233;28;20291;-84
2023/08/28 10:10:54;;;;;;;8.98;8.68;;;16.10;99.90;;;;;;5115929;27;20251;-84
2023/08/28 10:13:22;;;;;;;9.30;9.00;;;16.10;99.90;;;;;;5113966;27;20249;-85
2023/08/28 10:16:04;;;;;;;9.10;8.80;;;16.20;99.90;;;;;;5101249;28;20237;-85
2023/08/28 10:18:51;;;;;;;9.23;8.93;;;16.30;99.90;;;;;;5100874;28;20233;-86
2023/08/28 10:21:18;;;;;;;9.20;8.90;;;16.40;99.90;;;;;;5101330;28;20240;-84
2023/08/28 10:23:48;;;;;;;9.40;9.10;;;16.60;99.90;;;;;;5116093;28;20232;-85
2023/08/28 10:26:27;;;;;;;9.60;9.30;;;16.60;99.90;;;;;;5124006;28;20281;-84
2023/08/28 10:28:55;;;;;;;9.50;9.20;;;16.70;99.90;;;;;;5140724;27;20224;-83
2023/08/28 10:31:42;;;;;;;9.68;9.38;;;16.80;99.90;;;;;;5140185;28;20242;-83
2023/08/28 10:34:13;;;;;;;10.25;9.95;;;16.90;99.90;;;;;;5128906;28;20248;-86
2023/08/28 10:36:42;;;;;;;9.98;9.68;;;16.80;99.90;;;;;;5121679;28;20228;-84
2023/08/28 10:39:13;;;;;;;10.52;10.23;;;16.80;99.90;;;;;;5121214;27;20951;-85
2023/08/28 10:44:27;;;;;;;10.52;10.23;;;16.90;99.90;;;;;;5120782;28;20231;-86
2023/08/28 10:47:15;;;;;;;10.57;10.27;;;16.90;99.90;;;;;;5126841;28;20237;-88
2023/08/28 10:49:44;;;;;;;10.30;10.00;;;16.80;99.90;;;;;;5111954;28;20233;-85
2023/08/28 10:52:23;;;;;;;10.30;10.00;;;16.90;99.90;;;;;;5111854;28;20294;-85
2023/08/28 10:54:51;;;;;;;10.30;10.00;;;16.90;99.90;;;;;;5103240;28;20327;-85
2023/08/28 10:57:23;;;;;;;10.60;10.30;;;17.00;99.90;;;;;;5101968;28;20229;-85
2023/08/28 10:59:51;;;;;;;10.88;10.57;;;17.00;99.90;;;;;;5100984;28;20324;-85
2023/08/28 11:05:15;;;;;;;10.80;10.50;;;17.00;99.90;;;;;;5101581;28;20367;-85
2023/08/28 11:07:46;;;;;;;10.48;10.18;;;16.90;99.90;;;;;;5101492;28;20236;-85
2023/08/28 11:13:05;;;;;;;10.20;9.90;;;16.90;99.90;;;;;;5111810;28;20231;-84
2023/08/28 11:15:43;;;;;;;10.18;9.88;;;16.90;99.90;;;;;;5121821;28;20231;-84
2023/08/28 11:18:39;;;;;;;10.02;9.73;;;17.10;99.90;;;;;;5122355;28;20220;-84
2023/08/28 11:21:07;;;;;;;10.13;9.82;;;17.30;99.90;;;;;;5121755;28;20232;-84
2023/08/28 11:23:38;;;;;;;10.43;10.13;;;17.50;99.90;;;;;;5121006;27;20294;-84
2023/08/28 11:29:38;;;;;;;10.13;9.82;;;17.80;99.90;;;;;;5125261;28;20228;-84
2023/08/28 11:32:07;;;;;;;10.60;10.30;;;17.90;99.90;;;;;;5140255;28;20221;-83
2023/08/28 11:37:40;;;;;;;10.63;10.32;;;18.00;99.90;;;;;;5139854;27;20564;-84
2023/08/28 11:40:10;;;;;;;10.90;10.60;;;18.00;99.90;;;;;;5118647;27;20266;-84
2023/08/28 11:42:39;;;;;;;10.80;10.50;;;18.10;99.90;;;;;;5118987;27;20319;-83
2023/08/28 11:45:09;;;;;;;10.43;10.13;;;18.10;99.90;;;;;;5119309;27;20244;-84
2023/08/28 11:47:47;;;;;;;10.68;10.38;;;18.00;99.90;;;;;;5119858;27;20271;-84
2023/08/28 11:50:26;;;;;;;10.80;10.50;;;18.10;99.90;;;;;;5118374;27;20224;-83
2023/08/28 11:52:57;;;;;;;10.90;10.60;;;18.00;99.90;;;;;;5118861;27;20230;-84
2023/08/28 11:55:24;;;;;;;10.65;10.35;;;17.90;99.90;;;;;;5118984;27;20255;-84
2023/08/28 11:57:53;;;;;;;10.50;10.20;;;17.80;99.90;;;;;;5119264;27;20225;-83
2023/08/28 12:00:23;;;;;;;10.38;10.07;;;17.90;99.90;;;;;;5117696;28;20239;-84
2023/08/28 12:03:05;;;;;;;10.57;10.27;;;17.90;99.90;;;;;;5118426;27;20213;-84
2023/08/28 12:05:33;;;;;;;10.15;9.85;;;17.80;99.90;;;;;;5118346;27;20233;-84
2023/08/28 12:08:03;;;;;;;10.55;10.25;;;17.90;99.90;;;;;;5118364;27;20224;-84
2023/08/28 12:10:30;;;;;;;10.70;10.40;;;17.90;99.90;;;;;;5118355;27;20284;-84
2023/08/28 12:12:59;;;;;;;10.40;10.10;;;18.00;99.90;;;;;;5117532;27;20243;-84
2023/08/28 12:18:27;;;;;;;10.50;10.20;;;17.90;99.90;;;;;;5136953;27;20205;-83
2023/08/28 12:21:03;;;;;;;10.25;9.95;;;17.80;99.90;;;;;;5126957;27;20233;-84
2023/08/28 12:23:34;;;;;;;10.40;10.10;;;17.90;99.90;;;;;;5118687;27;20232;-83
2023/08/28 12:26:01;;;;;;;10.18;9.88;;;17.90;99.90;;;;;;5119670;27;20276;-83
2023/08/28 12:28:40;;;;;;;10.35;10.05;;;17.80;99.90;;;;;;5119267;27;20232;-83
2023/08/28 12:31:08;;;;;;;10.10;9.80;;;17.70;99.90;;;;;;5118951;27;20307;-83
2023/08/28 12:33:40;;;;;;;10.02;9.73;;;17.50;99.90;;;;;;5118835;27;20317;-85
2023/08/28 12:36:07;;;;;;;10.18;9.88;;;17.50;99.90;;;;;;5118663;27;20241;-84
2023/08/28 12:41:35;;;;;;;9.80;9.50;;;17.40;99.90;;;;;;5117687;27;20221;-84
2023/08/28 12:44:02;;;;;;;10.00;9.70;;;17.20;99.90;;;;;;5118363;27;20229;-84
2023/08/28 12:46:31;;;;;;;10.02;9.73;;;17.20;99.90;;;;;;5118918;27;20231;-84
2023/08/28 12:49:03;;;;;;;9.88;9.57;;;17.30;99.90;;;;;;5104278;27;20237;-84
2023/08/28 12:51:31;;;;;;;9.98;9.68;;;17.40;99.90;;;;;;5104126;28;20255;-85
2023/08/28 12:56:57;;;;;;;9.43;9.13;;;17.40;99.90;;;;;;5104526;28;20298;-85
2023/08/28 12:59:25;;;;;;;9.52;9.23;;;17.30;99.90;;;;;;5105139;28;20268;-85
2023/08/28 13:02:05;;;;;;;9.45;9.15;;;17.10;99.90;;;;;;5104279;28;20230;-85
2023/08/28 13:04:33;;;;;;;10.18;9.88;;;17.10;99.90;;;;;;5104741;28;20244;-85
2023/08/28 13:07:14;;;;;;;9.93;9.63;;;17.00;99.90;;;;;;5103706;28;20210;-85
2023/08/28 13:09:43;;;;;;;10.20;9.90;;;16.90;99.90;;;;;;5104341;28;20235;-85
2023/08/28 13:12:10;;;;;;;10.20;9.90;;;16.90;99.90;;;;;;5107336;27;20220;-82
2023/08/28 13:14:48;;;;;;;9.70;9.40;;;16.90;99.90;;;;;;5108168;27;20289;-85
2023/08/28 13:19:59;;;;;;;9.90;9.60;;;16.80;99.90;;;;;;5102654;28;20228;-85
2023/08/28 13:22:27;;;;;;;9.57;9.27;;;16.80;99.90;;;;;;5104246;28;20225;-86
2023/08/28 13:27:55;;;;;;;9.35;9.05;;;16.70;99.90;;;;;;5177810;27;20546;-82
2023/08/28 13:30:23;;;;;;;10.07;9.77;;;16.60;99.90;;;;;;5157757;27;20251;-82
2023/08/28 13:32:51;;;;;;;9.77;9.48;;;16.50;99.90;;;;;;5155644;27;20232;-83
2023/08/28 13:35:31;;;;;;;9.93;9.63;;;16.50;99.90;;;;;;5139811;27;20235;-84
2023/08/28 13:37:59;;;;;;;9.63;9.32;;;16.30;99.90;;;;;;5139893;27;20219;-84
2023/08/28 13:40:28;;;;;;;9.63;9.32;;;16.20;99.90;;;;;;5157802;27;20247;-82
2023/08/28 13:43:02;;;;;;;9.60;9.30;;;16.10;99.90;;;;;;5145671;27;20231;-84
2023/08/28 13:45:29;;;;;;;9.50;9.20;;;16.10;99.90;;;;;;5139461;27;20224;-84
2023/08/28 13:47:57;;;;;;;9.50;9.20;;;16.10;99.90;;;;;;5138827;27;20266;-82
2023/08/28 13:50:26;;;;;;;9.32;9.02;;;16.20;99.90;;;;;;5139725;27;20289;-84
2023/08/28 13:52:55;;;;;;;9.10;8.80;;;16.30;99.90;;;;;;5139867;27;20287;-84
2023/08/28 13:55:34;;;;;;;9.30;9.00;;;16.50;99.90;;;;;;5139760;27;20275;-85
2023/08/28 13:58:06;;;;;;;9.50;9.20;;;16.50;99.90;;;;;;5134930;27;20291;-85
2023/08/28 14:00:33;;;;;;;9.48;9.18;;;16.40;99.90;;;;;;5138555;27;20246;-85
2023/08/28 14:03:12;;;;;;;9.50;9.20;;;16.20;99.90;;;;;;5138612;27;20267;-85
2023/08/28 14:05:40;;;;;;;9.57;9.27;;;16.20;99.90;;;;;;5139768;27;20239;-85
2023/08/28 14:08:20;;;;;;;9.60;9.30;;;16.20;99.90;;;;;;5139762;27;20316;-85